Time;durP1;ratioP1;P1;durP2;ratioP2;P2;SDS_P1;SDS_P2;PMS_P1;PMS_P2;Temp;Humidity;BMP_temperature;BMP_pressure;BME280_temperature;BME280_humidity;BME280_pressure;Samples;Min_cycle;Max_cycle;Signal;HPM_P1;HPM_P2
2022/12/15 00:39:34;;;;;;;9.67;6.30;;;-4.60;99.90;;;;;;5041401;28;20295;-61
2022/12/15 00:42:01;;;;;;;13.70;7.07;;;-4.60;99.90;;;;;;5036212;28;20225;-61
2022/12/15 00:44:28;;;;;;;18.20;7.83;;;-4.60;99.90;;;;;;5042348;28;20233;-61
2022/12/15 00:46:54;;;;;;;13.50;7.90;;;-5.80;99.90;;;;;;5040573;28;20226;-61
2022/12/15 01:22:23;;;;;;;15.70;8.50;;;-4.40;99.90;;;;;;5003699;28;20222;-61
2022/12/15 01:24:51;;;;;;;15.77;7.50;;;-4.30;99.90;;;;;;5042551;28;20295;-61
2022/12/15 01:27:20;;;;;;;18.67;8.23;;;-4.40;99.90;;;;;;5034851;28;20206;-62
2022/12/15 01:29:47;;;;;;;13.67;7.10;;;-4.40;99.90;;;;;;5043465;28;20201;-61
2022/12/15 01:32:14;;;;;;;14.57;7.83;;;-4.40;99.90;;;;;;5043301;28;20200;-65
2022/12/15 01:34:40;;;;;;;15.90;8.80;;;-4.40;99.90;;;;;;5028676;28;20214;-61
2022/12/15 01:37:07;;;;;;;13.30;7.13;;;-4.40;99.90;;;;;;5019391;28;21396;-61
2022/12/15 01:42:16;;;;;;;14.40;8.17;;;-4.50;99.90;;;;;;5045837;28;20195;-61
2022/12/15 01:44:44;;;;;;;18.80;8.23;;;-4.50;99.90;;;;;;5034926;28;20236;-61
2022/12/15 01:47:14;;;;;;;15.47;8.50;;;-4.40;99.90;;;;;;5045150;28;20206;-61
2022/12/15 01:49:42;;;;;;;15.53;7.87;;;-4.40;99.90;;;;;;5029501;28;20195;-61
2022/12/15 01:52:10;;;;;;;13.47;7.73;;;-4.50;99.90;;;;;;5043758;28;20199;-62
2022/12/15 01:54:41;;;;;;;16.77;8.03;;;-4.50;99.90;;;;;;5001493;28;20584;-61
2022/12/15 01:57:13;;;;;;;12.40;7.33;;;-4.50;99.90;;;;;;5041894;28;20206;-63
2022/12/15 01:59:47;;;;;;;14.63;7.67;;;-4.50;99.90;;;;;;5033107;28;20223;-61
2022/12/15 02:02:15;;;;;;;14.60;7.57;;;-4.50;99.90;;;;;;5041097;28;20199;-61
2022/12/15 02:04:42;;;;;;;12.63;7.37;;;-4.50;99.90;;;;;;5024281;28;20200;-61
2022/12/15 02:07:12;;;;;;;16.30;8.43;;;-4.50;99.90;;;;;;5044812;28;20194;-61
2022/12/15 02:09:39;;;;;;;11.67;7.30;;;-4.50;99.90;;;;;;4992015;28;20225;-62
2022/12/15 02:12:20;;;;;;;13.77;6.90;;;-4.50;99.90;;;;;;5042137;28;20780;-61
2022/12/15 02:14:59;;;;;;;21.20;7.47;;;-4.50;99.90;;;;;;5038487;28;20203;-62
2022/12/15 02:17:35;;;;;;;15.60;7.77;;;-4.50;99.90;;;;;;5044463;28;20207;-61
2022/12/15 02:20:41;;;;;;;14.67;7.40;;;-4.50;99.90;;;;;;5035367;28;20728;-61
2022/12/15 02:23:33;;;;;;;13.00;7.63;;;-4.50;99.90;;;;;;5044852;28;20216;-61
2022/12/15 02:26:17;;;;;;;14.60;7.10;;;-4.50;99.90;;;;;;5018561;28;20214;-61
2022/12/15 02:28:54;;;;;;;13.17;7.27;;;-4.50;99.90;;;;;;5045469;28;20202;-62
2022/12/15 02:34:18;;;;;;;20.60;7.97;;;-4.50;99.90;;;;;;5044288;28;20205;-61
2022/12/15 02:36:48;;;;;;;15.63;7.17;;;-4.50;99.90;;;;;;5038681;28;20203;-61
2022/12/15 02:39:17;;;;;;;14.20;7.57;;;-4.50;99.90;;;;;;5019171;28;20236;-62
2022/12/15 02:41:47;;;;;;;16.27;8.37;;;-4.50;99.90;;;;;;5047117;28;20191;-61
2022/12/15 02:44:19;;;;;;;12.00;8.10;;;-4.50;99.90;;;;;;5036411;28;20226;-61
2022/12/15 02:47:00;;;;;;;13.13;7.83;;;-4.50;99.90;;;;;;5042220;28;20202;-61
2022/12/15 02:49:34;;;;;;;10.83;7.27;;;-4.50;99.90;;;;;;5045219;28;20205;-61
2022/12/15 02:52:15;;;;;;;14.17;8.33;;;-4.50;99.90;;;;;;5033232;28;20232;-61
2022/12/15 02:54:57;;;;;;;12.07;7.47;;;-4.60;99.90;;;;;;5042055;28;20229;-61
2022/12/15 02:57:32;;;;;;;12.33;6.60;;;-4.50;99.90;;;;;;5036727;28;20659;-61
2022/12/15 03:00:04;;;;;;;13.90;7.97;;;-4.50;99.90;;;;;;5041479;28;20222;-62
2022/12/15 03:02:36;;;;;;;14.43;7.10;;;-4.60;99.90;;;;;;5046665;28;20209;-62
2022/12/15 03:05:04;;;;;;;16.07;7.73;;;-4.60;99.90;;;;;;5045549;28;20200;-61
2022/12/15 03:07:31;;;;;;;15.40;7.93;;;-4.50;99.90;;;;;;5038303;28;20201;-62
2022/12/15 03:10:01;;;;;;;11.33;6.53;;;-4.50;99.90;;;;;;5028426;28;20242;-63
2022/12/15 03:12:27;;;;;;;14.40;8.20;;;-4.50;99.90;;;;;;5042635;28;20668;-61
2022/12/15 03:14:54;;;;;;;13.03;6.90;;;-4.50;99.90;;;;;;5045232;28;20191;-62
2022/12/15 03:17:21;;;;;;;15.03;7.60;;;-4.40;99.90;;;;;;5029441;28;20706;-62
2022/12/15 03:19:49;;;;;;;11.07;6.90;;;-4.40;99.90;;;;;;5048218;28;20646;-62
2022/12/15 03:22:16;;;;;;;14.53;7.97;;;-4.40;99.90;;;;;;5036671;28;20205;-61
2022/12/15 03:24:43;;;;;;;15.87;8.30;;;-4.40;99.90;;;;;;5043963;28;20195;-62
2022/12/15 03:27:10;;;;;;;14.50;7.97;;;-4.50;99.90;;;;;;5014069;28;20210;-62
2022/12/15 03:29:36;;;;;;;14.10;7.30;;;-4.40;99.90;;;;;;5044547;28;20200;-61
2022/12/15 03:32:03;;;;;;;17.57;7.33;;;-4.40;99.90;;;;;;5034819;28;23294;-61
2022/12/15 03:34:30;;;;;;;17.93;8.40;;;-4.30;99.90;;;;;;5044662;28;20203;-62
2022/12/15 03:36:59;;;;;;;13.27;7.23;;;-4.40;99.90;;;;;;5038916;28;20202;-61
2022/12/15 03:39:26;;;;;;;14.10;7.03;;;-4.40;99.90;;;;;;5044833;28;20305;-61
2022/12/15 03:41:53;;;;;;;14.37;7.03;;;-4.40;99.90;;;;;;4999512;28;20211;-61
2022/12/15 03:44:20;;;;;;;16.43;7.93;;;-4.30;99.90;;;;;;5049182;28;20257;-61
2022/12/15 03:46:47;;;;;;;15.20;8.07;;;-4.40;99.90;;;;;;5028255;28;20444;-61
2022/12/15 03:49:14;;;;;;;12.83;6.73;;;-4.40;99.90;;;;;;5045443;28;20605;-61
2022/12/15 03:51:40;;;;;;;15.07;8.03;;;-4.30;99.90;;;;;;5028190;28;20202;-61
2022/12/15 03:54:09;;;;;;;12.90;7.30;;;-4.40;99.90;;;;;;5048132;28;20222;-61
2022/12/15 03:56:35;;;;;;;14.63;7.63;;;-4.40;99.90;;;;;;5015279;28;20581;-61
2022/12/15 03:59:03;;;;;;;17.63;8.03;;;-4.40;99.90;;;;;;5032457;28;20698;-62
2022/12/15 04:01:31;;;;;;;13.27;7.40;;;-4.40;99.90;;;;;;5045802;28;20272;-62
2022/12/15 04:03:59;;;;;;;12.13;7.07;;;-4.30;99.90;;;;;;5019229;28;20799;-61
2022/12/15 04:06:26;;;;;;;13.50;6.67;;;-4.30;99.90;;;;;;5044456;28;20206;-62
2022/12/15 04:08:53;;;;;;;13.70;7.73;;;-4.30;99.90;;;;;;5033173;28;20207;-62
2022/12/15 04:11:21;;;;;;;18.47;8.77;;;-4.30;99.90;;;;;;5016468;28;20681;-62
2022/12/15 04:13:47;;;;;;;16.07;8.07;;;-4.40;99.90;;;;;;5037558;28;20203;-61
2022/12/15 04:16:14;;;;;;;17.33;7.47;;;-4.30;99.90;;;;;;5043020;28;20193;-62
2022/12/15 04:18:41;;;;;;;12.10;6.93;;;-4.30;99.90;;;;;;5032576;28;20219;-61
2022/12/15 04:21:07;;;;;;;18.07;8.30;;;-4.20;99.90;;;;;;5045262;28;20221;-62
2022/12/15 04:23:34;;;;;;;12.90;7.17;;;-4.30;99.90;;;;;;5047627;28;20196;-61
2022/12/15 05:32:04;;;;;;;15.77;8.90;;;-4.30;99.90;;;;;;5044296;28;20262;-61
2022/12/15 05:34:34;;;;;;;13.27;8.87;;;-4.30;99.90;;;;;;5032872;28;20206;-61
2022/12/15 05:37:03;;;;;;;20.17;7.57;;;-4.30;99.90;;;;;;5043691;28;20200;-61
2022/12/15 05:39:30;;;;;;;16.07;9.50;;;-4.20;99.90;;;;;;5033901;28;20221;-61
2022/12/15 05:41:57;;;;;;;13.43;8.37;;;-4.20;99.90;;;;;;5038334;28;20256;-61
2022/12/15 05:44:25;;;;;;;16.10;7.90;;;-4.20;99.90;;;;;;5011325;28;20225;-61
2022/12/15 05:46:52;;;;;;;17.03;8.03;;;-4.30;99.90;;;;;;5035708;28;20194;-62
2022/12/15 05:49:19;;;;;;;12.37;7.33;;;-4.30;99.90;;;;;;5035605;28;20234;-62
2022/12/15 05:54:37;;;;;;;13.13;6.63;;;-4.30;99.90;;;;;;5029219;22;20246;-61
2022/12/15 05:57:04;;;;;;;12.73;7.83;;;-4.30;99.90;;;;;;5022192;28;20229;-61
2022/12/15 05:59:31;;;;;;;13.00;7.40;;;-4.30;99.90;;;;;;4997528;28;21532;-61
2022/12/15 06:01:57;;;;;;;15.63;6.97;;;-4.30;99.90;;;;;;5024159;28;20603;-62
2022/12/15 06:04:24;;;;;;;13.23;7.13;;;-4.20;99.90;;;;;;5033112;28;20210;-61
2022/12/15 06:06:51;;;;;;;15.10;7.43;;;-4.30;99.90;;;;;;5039892;28;20206;-61
2022/12/15 06:09:18;;;;;;;12.97;6.90;;;-4.30;99.90;;;;;;5011262;28;20229;-61
2022/12/15 06:11:46;;;;;;;12.00;7.90;;;-4.30;99.90;;;;;;5039655;28;20221;-61
2022/12/15 06:14:13;;;;;;;13.87;7.33;;;-4.30;99.90;;;;;;5021878;28;21198;-61
2022/12/15 06:16:40;;;;;;;12.77;7.10;;;-4.30;99.90;;;;;;5007707;28;21265;-61
2022/12/15 06:19:07;;;;;;;11.43;7.23;;;-4.30;99.90;;;;;;5033186;28;20199;-61
2022/12/15 06:21:35;;;;;;;14.83;6.63;;;-4.30;99.90;;;;;;5016187;28;20234;-62
2022/12/15 06:24:03;;;;;;;16.83;6.90;;;-4.30;99.90;;;;;;5032000;28;20220;-61
2022/12/15 06:26:32;;;;;;;13.43;7.47;;;-4.30;99.90;;;;;;5039323;28;20220;-61
2022/12/15 06:29:02;;;;;;;12.30;7.07;;;-4.20;99.90;;;;;;5014982;28;20228;-61
2022/12/15 06:31:30;;;;;;;10.50;6.50;;;-4.20;99.90;;;;;;5011334;28;20226;-60
2022/12/15 06:33:57;;;;;;;12.03;7.07;;;-4.30;99.90;;;;;;5025448;28;20608;-61
2022/12/15 06:36:24;;;;;;;12.20;7.37;;;-4.20;99.90;;;;;;5027133;28;20233;-61
2022/12/15 06:38:52;;;;;;;12.37;6.80;;;-4.20;99.90;;;;;;5035401;28;20721;-62
2022/12/15 06:41:21;;;;;;;10.27;6.27;;;-4.20;99.90;;;;;;5049343;28;20234;-61
2022/12/15 06:43:49;;;;;;;12.93;7.50;;;-4.10;99.90;;;;;;5043115;28;20228;-61
2022/12/15 06:46:18;;;;;;;12.80;7.37;;;-4.10;99.90;;;;;;5027807;28;20231;-62
2022/12/15 06:48:45;;;;;;;12.50;7.73;;;-4.20;99.90;;;;;;5012349;28;20205;-61
2022/12/15 06:51:13;;;;;;;10.73;6.00;;;-4.20;99.90;;;;;;5042426;28;20223;-62
2022/12/15 06:53:41;;;;;;;14.13;6.57;;;-4.10;99.90;;;;;;5022834;28;20237;-62
2022/12/15 06:56:18;;;;;;;12.20;6.73;;;-4.10;99.90;;;;;;5045733;28;20238;-62
2022/12/15 06:58:47;;;;;;;11.47;6.43;;;-4.10;99.90;;;;;;5025678;28;20224;-62
2022/12/15 07:01:14;;;;;;;9.40;6.43;;;-4.10;99.90;;;;;;5013009;28;20227;-61
2022/12/15 07:03:42;;;;;;;12.30;7.07;;;-4.10;99.90;;;;;;4999848;28;20308;-60
2022/12/15 07:06:11;;;;;;;12.07;6.40;;;-4.10;99.90;;;;;;5034673;28;20716;-61
2022/12/15 07:08:38;;;;;;;12.23;7.53;;;-4.10;99.90;;;;;;5005597;28;20318;-60
2022/12/15 07:11:06;;;;;;;11.90;7.37;;;-4.00;99.90;;;;;;5042921;28;20201;-60
2022/12/15 07:13:33;;;;;;;10.27;6.03;;;-3.90;99.90;;;;;;5016786;28;20228;-60
2022/12/15 07:16:01;;;;;;;16.17;7.00;;;-3.90;99.90;;;;;;5048722;28;20219;-60
2022/12/15 07:18:28;;;;;;;13.53;7.07;;;-3.80;99.90;;;;;;5011889;28;20230;-61
2022/12/15 07:20:56;;;;;;;10.40;6.63;;;-3.80;99.90;;;;;;5048023;28;20751;-60
2022/12/15 07:23:23;;;;;;;12.23;6.23;;;-3.70;99.90;;;;;;5037151;28;20214;-60
2022/12/15 07:25:50;;;;;;;10.50;6.57;;;-3.60;99.90;;;;;;5048542;28;20211;-60
2022/12/15 07:28:17;;;;;;;9.07;6.20;;;-3.60;99.90;;;;;;5021627;28;20295;-61
2022/12/15 07:30:43;;;;;;;11.27;5.93;;;-3.50;99.90;;;;;;5044910;28;20207;-60
2022/12/15 07:33:10;;;;;;;11.30;6.80;;;-3.50;99.90;;;;;;5023372;28;20612;-60
2022/12/15 07:35:37;;;;;;;10.53;6.10;;;-3.50;99.90;;;;;;5026410;28;20223;-61
2022/12/15 07:38:08;;;;;;;10.23;6.47;;;-3.50;99.90;;;;;;5036200;28;20223;-61
2022/12/15 07:40:35;;;;;;;8.17;5.83;;;-3.40;99.90;;;;;;5036747;28;20761;-61
2022/12/15 07:43:02;;;;;;;13.87;7.43;;;-2.20;99.90;;;;;;5047855;28;20214;-61
2022/12/15 07:45:28;;;;;;;12.80;6.93;;;-1.40;99.90;;;;;;5034255;28;20250;-61
2022/12/15 07:47:55;;;;;;;13.10;7.37;;;-0.70;99.90;;;;;;5043024;28;20216;-61
2022/12/15 07:50:22;;;;;;;13.17;8.03;;;-1.40;99.90;;;;;;4998859;28;20225;-60
2022/12/15 07:52:50;;;;;;;10.73;6.47;;;-1.90;99.90;;;;;;5042861;28;20240;-61
2022/12/15 07:55:18;;;;;;;9.77;6.47;;;-2.20;99.90;;;;;;5036084;28;20697;-61
2022/12/15 07:57:47;;;;;;;14.37;7.17;;;-2.40;99.90;;;;;;5042910;28;20291;-61
2022/12/15 08:00:16;;;;;;;11.33;7.20;;;-2.60;99.90;;;;;;5034847;28;20216;-60
2022/12/15 08:02:43;;;;;;;13.57;6.40;;;-2.60;99.90;;;;;;5044349;28;21113;-61
2022/12/15 08:05:10;;;;;;;13.43;7.27;;;-2.70;99.90;;;;;;5004325;28;20232;-61
2022/12/15 08:07:37;;;;;;;12.57;6.87;;;-2.80;99.90;;;;;;5041230;28;20248;-61
2022/12/15 08:10:04;;;;;;;10.60;6.03;;;-2.80;99.90;;;;;;5036076;28;20233;-61
2022/12/15 08:12:33;;;;;;;11.47;6.47;;;-2.80;99.90;;;;;;5044349;28;20582;-61
2022/12/15 08:14:59;;;;;;;11.47;6.37;;;-2.90;99.90;;;;;;5030019;28;24070;-61
2022/12/15 08:17:26;;;;;;;14.10;7.20;;;-2.80;99.90;;;;;;5049946;28;20705;-61
2022/12/15 08:19:54;;;;;;;13.77;7.43;;;-2.80;99.90;;;;;;5001605;28;20231;-61
2022/12/15 08:22:21;;;;;;;13.17;6.70;;;-2.70;99.90;;;;;;5028951;28;20699;-60
2022/12/15 08:24:48;;;;;;;12.43;7.30;;;-2.70;99.90;;;;;;5032717;28;21160;-61
2022/12/15 08:27:15;;;;;;;11.23;6.80;;;-2.70;99.90;;;;;;5048353;28;20224;-60
2022/12/15 08:29:43;;;;;;;14.70;6.50;;;-2.70;99.90;;;;;;5034864;28;20201;-60
2022/12/15 08:32:09;;;;;;;12.37;7.50;;;-2.70;99.90;;;;;;5047136;28;20953;-61
2022/12/15 08:34:37;;;;;;;9.23;6.37;;;-2.70;99.90;;;;;;5046159;28;20189;-61
2022/12/15 08:37:04;;;;;;;11.50;6.30;;;-2.70;99.90;;;;;;5007721;28;20204;-61
2022/12/15 08:39:31;;;;;;;11.80;6.70;;;-2.60;99.90;;;;;;5041644;28;20870;-61
2022/12/15 08:41:58;;;;;;;11.03;7.20;;;-2.60;99.90;;;;;;5043821;28;20220;-60
2022/12/15 08:44:25;;;;;;;10.60;6.83;;;-2.60;99.90;;;;;;5048234;28;20217;-61
2022/12/15 08:46:53;;;;;;;15.50;8.00;;;-2.60;99.90;;;;;;5034969;28;20570;-61
2022/12/15 08:49:19;;;;;;;14.23;7.43;;;-2.50;99.90;;;;;;5046961;28;20199;-61
2022/12/15 08:51:46;;;;;;;12.53;6.83;;;-2.50;99.90;;;;;;5010126;28;20221;-61
2022/12/15 08:54:13;;;;;;;12.30;6.13;;;-2.40;99.90;;;;;;5035546;28;20229;-60
2022/12/15 08:56:40;;;;;;;13.30;7.17;;;-2.40;99.90;;;;;;5030799;28;20206;-61
2022/12/15 08:59:07;;;;;;;14.57;8.00;;;-2.30;99.90;;;;;;5025045;28;20211;-61
2022/12/15 09:01:38;;;;;;;16.97;8.87;;;-2.20;99.90;;;;;;5032813;28;20273;-61
2022/12/15 09:04:06;;;;;;;23.03;8.00;;;-2.20;99.90;;;;;;5032652;28;20201;-61
2022/12/15 09:06:35;;;;;;;15.07;8.67;;;-2.10;99.90;;;;;;5009762;28;20228;-61
2022/12/15 09:09:06;;;;;;;12.23;7.13;;;-2.10;99.90;;;;;;5021944;28;20216;-61
2022/12/15 09:11:34;;;;;;;13.80;7.63;;;-2.10;99.90;;;;;;5029419;28;20209;-61
2022/12/15 09:14:00;;;;;;;14.70;6.57;;;-2.10;99.90;;;;;;5045266;28;20197;-60
2022/12/15 09:16:27;;;;;;;20.37;7.37;;;-2.00;99.90;;;;;;5028159;28;20197;-61
2022/12/15 09:18:56;;;;;;;13.37;6.27;;;-2.00;99.90;;;;;;5028703;28;20221;-61
2022/12/15 09:21:26;;;;;;;12.47;7.27;;;-2.00;99.90;;;;;;5045229;28;20244;-61
2022/12/15 09:23:56;;;;;;;10.03;6.20;;;-2.00;99.90;;;;;;5018032;28;20326;-60
2022/12/15 09:26:23;;;;;;;13.17;5.90;;;-2.00;99.90;;;;;;5040655;28;20205;-61
2022/12/15 09:28:51;;;;;;;13.77;6.43;;;-1.90;99.90;;;;;;5036118;28;20210;-60
2022/12/15 09:31:20;;;;;;;14.20;6.47;;;-1.90;99.90;;;;;;5035653;28;20223;-61
2022/12/15 09:33:48;;;;;;;13.10;6.63;;;-1.90;99.90;;;;;;5037193;28;20227;-60
2022/12/15 09:36:15;;;;;;;10.20;6.47;;;-1.80;99.90;;;;;;5030347;28;20198;-61
2022/12/15 09:38:43;;;;;;;9.77;6.30;;;-1.90;99.90;;;;;;5018872;28;20197;-61
2022/12/15 09:41:20;;;;;;;9.67;6.40;;;-1.90;99.90;;;;;;5033035;28;20231;-61
2022/12/15 09:43:53;;;;;;;8.70;5.90;;;-1.80;99.90;;;;;;5035127;28;21271;-61
2022/12/15 09:46:27;;;;;;;10.70;6.80;;;-1.70;99.90;;;;;;5043778;28;20197;-60
2022/12/15 09:48:55;;;;;;;13.97;6.90;;;-1.70;99.90;;;;;;5034919;28;20232;-61
2022/12/15 09:51:33;;;;;;;13.70;7.47;;;-1.70;99.90;;;;;;5037176;28;20235;-61
2022/12/15 09:54:01;;;;;;;12.53;6.77;;;-1.70;99.90;;;;;;5015539;28;20264;-62
2022/12/15 09:56:39;;;;;;;10.83;6.67;;;-1.70;99.90;;;;;;5036933;28;20236;-61
2022/12/15 09:59:19;;;;;;;10.80;6.57;;;-1.60;99.90;;;;;;5034783;28;20208;-61
2022/12/15 10:01:55;;;;;;;11.57;6.83;;;-1.50;99.90;;;;;;5049583;28;20626;-61
2022/12/15 10:04:33;;;;;;;9.73;6.00;;;-1.50;99.90;;;;;;5022825;28;20231;-60
2022/12/15 10:07:08;;;;;;;12.50;6.17;;;-1.40;99.90;;;;;;5045770;28;20200;-61
2022/12/15 10:09:38;;;;;;;9.80;6.00;;;-1.30;99.90;;;;;;5019935;28;20704;-61
2022/12/15 10:12:09;;;;;;;8.93;5.50;;;-1.10;99.90;;;;;;5031782;28;20686;-61
2022/12/15 10:14:41;;;;;;;11.57;6.27;;;-1.10;99.90;;;;;;5034711;28;20224;-61
2022/12/15 10:17:21;;;;;;;7.87;5.80;;;-1.00;99.90;;;;;;5045091;28;20664;-61
2022/12/15 10:19:54;;;;;;;12.13;6.30;;;-1.00;99.90;;;;;;5035153;28;20298;-61
2022/12/15 10:22:24;;;;;;;9.67;6.13;;;-1.00;99.90;;;;;;5041908;28;20229;-61
2022/12/15 10:24:53;;;;;;;8.97;6.47;;;-1.00;99.90;;;;;;5023107;28;20200;-60
2022/12/15 10:27:34;;;;;;;14.87;6.47;;;-0.90;99.90;;;;;;5024289;28;20209;-61
2022/12/15 10:30:02;;;;;;;13.47;6.23;;;-0.90;99.90;;;;;;5040551;28;20196;-61
2022/12/15 10:32:38;;;;;;;11.67;6.13;;;-0.90;99.90;;;;;;5046389;28;20201;-61
2022/12/15 10:35:09;;;;;;;8.33;5.60;;;-0.90;99.90;;;;;;5031408;28;20575;-61
2022/12/15 10:37:36;;;;;;;11.70;5.63;;;-0.90;99.90;;;;;;5044778;28;20202;-61
2022/12/15 10:40:05;;;;;;;9.67;6.13;;;-0.80;99.90;;;;;;5029312;28;20205;-61
2022/12/15 10:42:38;;;;;;;9.33;5.87;;;-0.80;99.90;;;;;;5035147;28;20315;-61
2022/12/15 10:45:34;;;;;;;9.30;6.37;;;-0.80;99.90;;;;;;5041467;28;20591;-61
2022/12/15 10:48:02;;;;;;;12.87;6.67;;;-0.70;99.90;;;;;;5035380;28;21588;-61
2022/12/15 10:50:29;;;;;;;11.93;7.43;;;-0.70;99.90;;;;;;5036446;28;20212;-62
2022/12/15 10:52:56;;;;;;;10.07;6.53;;;-0.70;99.90;;;;;;5038032;28;20604;-62
2022/12/15 10:55:37;;;;;;;11.07;6.67;;;-0.60;99.90;;;;;;5018659;28;21924;-61
2022/12/15 10:58:16;;;;;;;10.17;5.97;;;-0.60;99.90;;;;;;5037079;28;20210;-61
2022/12/15 11:00:42;;;;;;;14.17;6.87;;;-0.50;99.90;;;;;;5035150;28;20267;-61
2022/12/15 11:03:21;;;;;;;12.10;7.03;;;-0.50;99.90;;;;;;5032229;28;20196;-61
2022/12/15 11:05:52;;;;;;;12.53;7.07;;;-0.60;99.90;;;;;;5033385;28;20201;-61
2022/12/15 11:08:21;;;;;;;14.97;6.70;;;-0.50;99.90;;;;;;5037103;28;20254;-61
2022/12/15 11:13:39;;;;;;;11.63;6.60;;;-0.50;99.90;;;;;;5033306;28;20589;-61
2022/12/15 11:16:16;;;;;;;11.60;5.80;;;-0.50;99.90;;;;;;5031027;28;20205;-61
2022/12/15 11:18:47;;;;;;;10.00;5.57;;;-0.50;99.90;;;;;;5022385;28;20213;-61
2022/12/15 11:21:21;;;;;;;9.57;5.90;;;-0.50;99.90;;;;;;5027519;28;20656;-61
2022/12/15 11:23:56;;;;;;;15.40;6.27;;;-0.50;99.90;;;;;;5034727;28;21359;-61
2022/12/15 11:26:34;;;;;;;11.90;6.47;;;-0.50;99.90;;;;;;5011678;28;20211;-62
2022/12/15 11:29:07;;;;;;;8.67;6.23;;;-0.50;99.90;;;;;;5044262;28;23302;-61
2022/12/15 11:31:38;;;;;;;14.10;5.83;;;-0.50;99.90;;;;;;5032413;28;20224;-62
2022/12/15 11:34:12;;;;;;;12.77;6.13;;;-0.40;99.90;;;;;;5020232;28;20470;-62
2022/12/15 11:36:59;;;;;;;9.20;6.20;;;-0.40;99.90;;;;;;5033669;28;20246;-62
2022/12/15 11:39:41;;;;;;;14.17;7.00;;;-0.30;99.90;;;;;;5035517;28;20197;-61
2022/12/15 11:42:20;;;;;;;10.40;6.60;;;-0.30;99.90;;;;;;5008220;28;20596;-61
2022/12/15 11:44:57;;;;;;;12.47;7.37;;;-0.30;99.90;;;;;;5028018;28;20220;-62
2022/12/15 11:47:33;;;;;;;11.20;6.53;;;-0.20;99.90;;;;;;5001190;28;20309;-61
2022/12/15 11:50:24;;;;;;;10.23;6.43;;;-0.20;99.90;;;;;;5023433;28;20336;-62
2022/12/15 11:53:14;;;;;;;13.77;6.87;;;-0.20;99.90;;;;;;5018911;28;20339;-62
2022/12/15 11:55:52;;;;;;;11.43;6.13;;;-0.10;99.90;;;;;;4972332;28;20230;-61
2022/12/15 11:58:48;;;;;;;10.90;6.30;;;-0.10;99.90;;;;;;5002719;28;20216;-62
2022/12/15 12:01:27;;;;;;;12.43;6.40;;;-0.10;99.90;;;;;;4997334;28;21607;-62
2022/12/15 12:04:04;;;;;;;14.63;6.80;;;-0.10;99.90;;;;;;4980363;28;20224;-62
2022/12/15 12:06:38;;;;;;;9.33;6.27;;;0.00;99.90;;;;;;4978055;28;20226;-62
2022/12/15 12:09:23;;;;;;;13.53;6.40;;;0.10;99.90;;;;;;5001664;28;20231;-61
2022/12/15 12:11:57;;;;;;;13.10;6.00;;;0.10;99.90;;;;;;4976321;28;20727;-62
2022/12/15 12:14:39;;;;;;;8.13;5.60;;;0.10;99.90;;;;;;5000468;28;20224;-62
2022/12/15 12:17:11;;;;;;;9.70;5.50;;;0.20;99.90;;;;;;5000148;28;20229;-61
2022/12/15 12:19:42;;;;;;;7.43;5.80;;;0.20;99.90;;;;;;4978144;28;21190;-62
2022/12/15 12:22:16;;;;;;;12.17;6.07;;;0.20;99.90;;;;;;4992498;28;20244;-62
2022/12/15 12:24:48;;;;;;;14.40;6.20;;;0.30;99.90;;;;;;5010980;28;20237;-62
2022/12/15 12:27:26;;;;;;;8.97;5.43;;;0.30;99.90;;;;;;4975996;28;20219;-62
2022/12/15 12:30:01;;;;;;;10.10;5.63;;;0.30;99.90;;;;;;4995636;28;20939;-62
2022/12/15 12:32:39;;;;;;;10.23;5.67;;;0.30;99.90;;;;;;4995494;28;20540;-61
2022/12/15 12:35:13;;;;;;;9.93;5.47;;;0.30;99.90;;;;;;4982620;28;20713;-62
2022/12/15 12:37:42;;;;;;;7.57;5.03;;;0.30;99.90;;;;;;4990496;22;20262;-61
2022/12/15 12:40:18;;;;;;;8.10;5.40;;;0.30;99.90;;;;;;5021571;28;20232;-62
2022/12/15 12:42:53;;;;;;;12.63;5.70;;;0.30;99.90;;;;;;4974414;28;20232;-62
2022/12/15 12:45:24;;;;;;;8.80;6.13;;;0.30;99.90;;;;;;5028049;28;20220;-62
2022/12/15 12:47:54;;;;;;;8.63;5.33;;;0.30;99.90;;;;;;5027822;28;20225;-62
2022/12/15 12:50:23;;;;;;;9.07;5.57;;;0.40;99.90;;;;;;5010683;28;20853;-61
2022/12/15 12:52:52;;;;;;;8.43;5.47;;;0.40;99.90;;;;;;5028365;28;20232;-62
2022/12/15 12:55:29;;;;;;;10.10;5.13;;;0.40;99.90;;;;;;5036458;22;20325;-61
2022/12/15 12:57:56;;;;;;;12.63;6.20;;;0.40;99.90;;;;;;4985873;28;21331;-61
2022/12/15 13:00:26;;;;;;;10.53;6.00;;;0.40;99.90;;;;;;5031195;28;20780;-61
2022/12/15 13:03:18;;;;;;;9.70;5.70;;;0.50;99.90;;;;;;5031058;28;20234;-61
2022/12/15 13:05:50;;;;;;;11.20;7.07;;;0.50;99.90;;;;;;5011401;28;20241;-61
2022/12/15 13:08:42;;;;;;;8.40;6.17;;;0.40;99.90;;;;;;5036443;28;20314;-64
2022/12/15 13:11:54;;;;;;;9.97;5.97;;;0.50;99.90;;;;;;5024242;28;20584;-61
2022/12/15 13:14:43;;;;;;;8.83;5.70;;;0.50;99.90;;;;;;4990346;28;20229;-61
2022/12/15 13:17:17;;;;;;;11.33;5.83;;;0.50;99.90;;;;;;5034037;28;20223;-61
2022/12/15 13:20:15;;;;;;;10.23;5.83;;;0.60;99.90;;;;;;5011297;28;20216;-61
2022/12/15 13:22:42;;;;;;;13.13;5.70;;;0.50;99.90;;;;;;5022253;28;20234;-61
2022/12/15 13:25:40;;;;;;;11.53;6.57;;;0.60;99.90;;;;;;5028311;28;20230;-61
2022/12/15 13:28:39;;;;;;;7.93;5.67;;;0.60;99.90;;;;;;4931683;28;20237;-62
2022/12/15 13:31:27;;;;;;;6.67;5.53;;;0.60;99.90;;;;;;5034426;28;20228;-61
2022/12/15 13:34:09;;;;;;;10.80;5.63;;;0.60;99.90;;;;;;5036069;28;20622;-62
2022/12/15 13:36:48;;;;;;;10.87;5.53;;;0.60;99.90;;;;;;5023715;28;20226;-61
2022/12/15 13:39:35;;;;;;;12.00;6.23;;;0.60;99.90;;;;;;5029014;28;20370;-61
2022/12/15 13:42:29;;;;;;;12.20;6.60;;;0.60;99.90;;;;;;5021406;28;20231;-61
2022/12/15 13:45:11;;;;;;;10.93;5.97;;;0.50;99.90;;;;;;5009611;28;21053;-61
2022/12/15 13:47:38;;;;;;;7.03;5.60;;;0.60;99.90;;;;;;5029009;28;20224;-61
2022/12/15 13:50:14;;;;;;;11.40;5.93;;;0.50;99.90;;;;;;5036630;28;20291;-61
2022/12/15 13:52:47;;;;;;;12.47;5.83;;;0.50;99.90;;;;;;5013068;28;20212;-61
2022/12/15 13:55:19;;;;;;;15.37;6.10;;;0.50;99.90;;;;;;5040274;28;20226;-61
2022/12/15 13:57:55;;;;;;;10.80;7.70;;;0.50;99.90;;;;;;5024702;28;20227;-61
2022/12/15 14:00:22;;;;;;;9.60;6.20;;;0.50;99.90;;;;;;5008115;28;20913;-61
2022/12/15 14:02:49;;;;;;;12.27;5.40;;;0.60;99.90;;;;;;5000685;28;20235;-61
2022/12/15 14:05:21;;;;;;;9.20;5.80;;;0.60;99.90;;;;;;5038064;28;20710;-61
2022/12/15 14:07:50;;;;;;;9.67;5.27;;;0.60;99.90;;;;;;5023711;28;20230;-61
2022/12/15 14:10:19;;;;;;;11.13;5.13;;;0.60;99.90;;;;;;5034693;28;20205;-61
2022/12/15 14:12:48;;;;;;;9.83;6.00;;;0.50;99.90;;;;;;5021264;28;20726;-61
2022/12/15 14:15:17;;;;;;;15.37;6.47;;;0.50;99.90;;;;;;5005686;28;20247;-61
2022/12/15 14:17:49;;;;;;;9.37;6.07;;;0.50;99.90;;;;;;5025811;28;20801;-61
2022/12/15 14:20:21;;;;;;;8.53;5.87;;;0.40;99.90;;;;;;5038614;28;20219;-61
2022/12/15 14:22:49;;;;;;;10.07;6.30;;;0.50;99.90;;;;;;5035418;28;20606;-61
2022/12/15 14:25:20;;;;;;;14.17;6.50;;;0.40;99.90;;;;;;5007343;28;20243;-61
2022/12/15 14:27:48;;;;;;;11.80;6.57;;;0.40;99.90;;;;;;5015955;28;20221;-61
2022/12/15 14:30:23;;;;;;;12.07;7.30;;;0.40;99.90;;;;;;5014664;28;20211;-62
2022/12/15 14:32:54;;;;;;;11.67;7.10;;;0.40;99.90;;;;;;5043705;28;20205;-65
2022/12/15 14:35:27;;;;;;;11.90;7.23;;;0.40;99.90;;;;;;4998610;28;20234;-61
2022/12/15 14:37:57;;;;;;;10.40;6.43;;;0.40;99.90;;;;;;5029994;28;20214;-62
2022/12/15 14:40:25;;;;;;;13.00;7.10;;;0.40;99.90;;;;;;5013954;28;21192;-61
2022/12/15 14:42:53;;;;;;;9.43;6.70;;;0.40;99.90;;;;;;5037957;28;20609;-61
2022/12/15 14:45:23;;;;;;;15.43;6.93;;;0.30;99.90;;;;;;5000294;28;20208;-62
2022/12/15 14:47:54;;;;;;;11.63;6.90;;;0.30;99.90;;;;;;5037147;28;20247;-61
2022/12/15 14:50:24;;;;;;;11.40;7.73;;;0.30;99.90;;;;;;5019965;28;20230;-61
2022/12/15 14:52:55;;;;;;;18.30;7.90;;;0.20;99.90;;;;;;5037348;28;20657;-61
2022/12/15 14:55:30;;;;;;;14.33;8.27;;;0.20;99.90;;;;;;5017477;28;20228;-62
2022/12/15 14:57:59;;;;;;;10.70;6.93;;;0.20;99.90;;;;;;5036397;28;20878;-61
2022/12/15 15:00:27;;;;;;;12.10;7.50;;;0.10;99.90;;;;;;5030135;28;20216;-61
2022/12/15 15:03:22;;;;;;;10.70;6.67;;;0.10;99.90;;;;;;5014327;28;20721;-61
2022/12/15 15:05:53;;;;;;;15.20;6.97;;;0.10;99.90;;;;;;5034065;28;21971;-61
2022/12/15 15:08:26;;;;;;;10.70;7.40;;;0.10;99.90;;;;;;5037991;28;20207;-62
2022/12/15 15:10:54;;;;;;;17.50;8.43;;;0.00;99.90;;;;;;5025253;28;20215;-61
2022/12/15 15:13:24;;;;;;;12.80;7.47;;;0.00;99.90;;;;;;5039944;28;20213;-62
2022/12/15 15:15:53;;;;;;;10.83;7.67;;;0.00;99.90;;;;;;5024050;28;20225;-61
2022/12/15 15:18:25;;;;;;;12.60;7.37;;;0.00;99.90;;;;;;4991261;28;20232;-61
2022/12/15 15:20:58;;;;;;;12.83;7.03;;;0.00;99.90;;;;;;5038038;28;21334;-62
2022/12/15 15:23:25;;;;;;;11.90;6.70;;;-0.10;99.90;;;;;;5033319;28;20292;-61
2022/12/15 15:25:53;;;;;;;14.03;7.60;;;-0.10;99.90;;;;;;5039766;28;20203;-61
2022/12/15 15:28:26;;;;;;;15.83;7.70;;;-0.10;99.90;;;;;;5020497;28;20227;-62
2022/12/15 15:30:56;;;;;;;11.63;8.37;;;-0.10;99.90;;;;;;5024335;28;20213;-60